createdAt,value
2018-09-14T00:00:26.046Z,85.63
2018-09-14T00:01:26.062Z,85.91
2018-09-14T00:03:18.983Z,86.49
2018-09-14T00:04:18.983Z,85.82
2018-09-14T00:06:11.882Z,85.34
2018-09-14T00:07:11.901Z,85.58
2018-09-14T00:09:04.815Z,86.44
2018-09-14T00:10:04.826Z,86.35
2018-09-14T00:11:57.735Z,87.21
2018-09-14T00:12:57.750Z,87.21
2018-09-14T00:14:50.644Z,87.02
2018-09-14T00:15:50.666Z,86.73
2018-09-14T00:17:43.576Z,86.63
2018-09-14T00:18:43.584Z,87.21
2018-09-14T00:20:36.491Z,86.63
2018-09-14T00:21:36.514Z,86.63
2018-09-14T00:23:29.436Z,86.44
2018-09-14T00:24:29.428Z,86.25
2018-09-14T00:26:22.336Z,86.06
2018-09-14T00:27:22.371Z,86.16
2018-09-14T00:29:15.266Z,86.16
2018-09-14T00:30:15.273Z,86.25
2018-09-14T00:32:08.182Z,86.16
2018-09-14T00:33:08.194Z,86.35
2018-09-14T00:35:01.102Z,86.16
2018-09-14T00:36:01.115Z,86.06
2018-09-14T00:37:54.028Z,86.16
2018-09-14T00:38:54.057Z,86.16
2018-09-14T00:40:46.942Z,86.06
2018-09-14T00:41:46.957Z,86.06
2018-09-14T00:43:39.872Z,86.35
2018-09-14T00:44:39.880Z,86.44
2018-09-14T00:46:32.786Z,86.25
2018-09-14T00:47:32.804Z,86.35
2018-09-14T00:49:25.724Z,86.63
2018-09-14T00:50:25.731Z,86.63
2018-09-14T00:52:18.632Z,86.63
2018-09-14T00:53:18.650Z,86.92
2018-09-14T00:55:11.563Z,87.30
2018-09-14T00:56:11.572Z,87.21
2018-09-14T00:58:04.479Z,87.30
2018-09-14T00:59:04.487Z,86.98
2018-09-14T01:00:57.392Z,87.21
2018-09-14T01:01:57.408Z,86.88
2018-09-14T01:03:50.319Z,86.40
2018-09-14T01:04:50.329Z,86.40
2018-09-14T01:06:43.228Z,86.49
2018-09-14T01:07:43.247Z,86.59
2018-09-14T01:09:36.162Z,87.35
2018-09-14T01:10:36.167Z,87.26
2018-09-14T01:12:29.070Z,86.88
2018-09-14T01:13:29.088Z,86.78
2018-09-14T01:15:21.998Z,88.12
2018-09-14T01:16:22.003Z,87.74
2018-09-14T01:18:14.922Z,87.74
2018-09-14T01:19:14.921Z,87.74
2018-09-14T01:21:07.825Z,87.54
2018-09-14T01:22:07.846Z,87.74
2018-09-14T01:24:00.751Z,87.74
2018-09-14T01:25:00.759Z,87.83
2018-09-14T01:26:53.672Z,87.54
2018-09-14T01:27:53.692Z,87.74
2018-09-14T01:29:46.600Z,87.54
2018-09-14T01:30:46.609Z,87.54
2018-09-14T01:32:39.510Z,87.74
2018-09-14T01:33:39.527Z,87.54
2018-09-14T01:35:32.437Z,87.54
2018-09-14T01:36:32.446Z,88.02
2018-09-14T01:38:25.355Z,88.12
2018-09-14T01:39:25.364Z,87.83
2018-09-14T01:41:18.264Z,88.50
2018-09-14T01:42:18.279Z,88.50
2018-09-14T01:44:11.199Z,88.21
2018-09-14T01:45:11.204Z,88.21
2018-09-14T01:47:04.105Z,88.50
2018-09-14T01:48:04.123Z,88.40
2018-09-14T01:49:57.030Z,88.50
2018-09-14T01:50:57.042Z,88.21
2018-09-14T01:52:49.943Z,88.21
2018-09-14T01:53:49.962Z,88.40
2018-09-14T01:55:42.869Z,88.31
2018-09-14T01:56:42.880Z,88.12
2018-09-14T01:58:35.786Z,87.93
2018-09-14T01:59:35.802Z,88.02
2018-09-14T02:01:28.699Z,88.50
2018-09-14T02:02:28.714Z,87.64
2018-09-14T02:04:21.634Z,87.45
2018-09-14T02:05:21.642Z,87.93
2018-09-14T02:07:14.545Z,88.12
2018-09-14T02:08:14.553Z,87.93
2018-09-14T02:10:07.471Z,88.02
2018-09-14T02:11:07.477Z,87.45
2018-09-14T02:13:00.384Z,87.93
2018-09-14T02:14:00.405Z,88.69
2018-09-14T02:15:53.314Z,88.40
2018-09-14T02:16:53.321Z,88.69
2018-09-14T02:18:46.233Z,88.50
2018-09-14T02:19:46.239Z,88.69
2018-09-14T02:21:39.150Z,88.69
2018-09-14T02:22:39.161Z,88.59
2018-09-14T02:24:32.073Z,89.26
2018-09-14T02:25:32.119Z,89.36
2018-09-14T02:27:24.981Z,89.07
2018-09-14T02:28:24.997Z,89.26
2018-09-14T02:30:17.917Z,89.64
2018-09-14T02:31:17.920Z,89.26
2018-09-14T02:33:10.824Z,89.36
2018-09-14T02:34:10.840Z,90.03
2018-09-14T02:36:03.750Z,89.74
2018-09-14T02:37:03.761Z,90.12
2018-09-14T02:38:56.671Z,90.50
2018-09-14T02:39:56.683Z,90.41
2018-09-14T02:41:49.587Z,90.88
2018-09-14T02:42:49.600Z,91.27
2018-09-14T02:44:42.509Z,91.55
2018-09-14T02:45:42.521Z,91.55
2018-09-14T02:47:35.436Z,91.55
2018-09-14T02:48:35.439Z,91.36
2018-09-14T02:50:28.387Z,91.36
2018-09-14T02:51:28.359Z,90.88
2018-09-14T02:53:21.260Z,90.41
2018-09-14T02:54:21.278Z,89.83
2018-09-14T02:56:14.192Z,90.22
2018-09-14T02:57:14.201Z,89.83
2018-09-14T02:59:07.113Z,90.03
2018-09-14T03:00:07.153Z,89.74
2018-09-14T03:02:00.043Z,89.97
2018-09-14T03:03:00.038Z,89.36
2018-09-14T03:04:52.945Z,89.26
2018-09-14T03:05:52.959Z,89.36
2018-09-14T03:07:45.907Z,89.83
2018-09-14T03:08:45.881Z,89.93
2018-09-14T03:10:38.827Z,89.74
2018-09-14T03:11:38.820Z,89.74
2018-09-14T03:13:31.783Z,89.83
2018-09-14T03:14:31.779Z,89.83
2018-09-14T03:16:24.655Z,89.83
2018-09-14T03:17:24.666Z,89.93
2018-09-14T03:19:17.576Z,89.97
2018-09-14T03:20:17.597Z,89.88
2018-09-14T03:22:10.502Z,90.17
2018-09-14T03:23:10.537Z,89.97
2018-09-14T03:25:03.481Z,89.88
2018-09-14T03:26:03.567Z,89.88
2018-09-14T03:27:56.482Z,89.97
2018-09-14T03:28:56.417Z,90.17
2018-09-14T03:30:49.321Z,90.41
2018-09-14T03:31:49.373Z,90.59
2018-09-14T03:33:42.225Z,90.98
2018-09-14T03:34:42.300Z,91.36
2018-09-14T03:36:35.161Z,91.41
2018-09-14T03:37:35.168Z,91.83
2018-09-14T03:39:28.071Z,91.27
2018-09-14T03:40:28.088Z,91.17
2018-09-14T03:42:20.995Z,91.50
2018-09-14T03:43:21.006Z,91.36
2018-09-14T03:45:13.945Z,90.59
2018-09-14T03:46:13.963Z,90.98
2018-09-14T03:48:07.070Z,91.55
2018-09-14T03:49:07.087Z,91.64
2018-09-14T03:50:59.989Z,91.46
2018-09-14T03:52:00.012Z,91.36
2018-09-14T03:53:52.905Z,91.07
2018-09-14T03:54:52.920Z,90.79
2018-09-14T03:56:45.892Z,91.83
2018-09-14T03:57:45.840Z,91.98
2018-09-14T03:59:38.751Z,92.27
2018-09-14T04:00:38.766Z,92.60
2018-09-14T04:02:31.672Z,92.69
2018-09-14T04:03:31.683Z,93.17
2018-09-14T04:05:24.589Z,93.08
2018-09-14T04:06:24.605Z,92.41
2018-09-14T04:08:17.520Z,93.08
2018-09-14T04:09:17.533Z,93.08
2018-09-14T04:11:10.461Z,92.93
2018-09-14T04:12:10.450Z,93.41
2018-09-14T04:14:03.357Z,94.65
2018-09-14T04:15:03.370Z,94.08
2018-09-14T04:16:56.318Z,94.56
2018-09-14T04:17:56.295Z,95.22
2018-09-14T04:19:49.191Z,95.56
2018-09-14T04:20:49.209Z,95.65
2018-09-14T04:22:42.322Z,95.84
2018-09-14T04:23:42.451Z,95.75
2018-09-14T04:25:35.235Z,96.60
2018-09-14T04:26:35.251Z,96.70
2018-09-14T04:28:28.171Z,96.65
2018-09-14T04:29:28.165Z,95.98
2018-09-14T04:31:21.093Z,96.27
2018-09-14T04:32:21.116Z,96.56
2018-09-14T04:34:14.027Z,96.36
2018-09-14T04:35:14.034Z,96.27
2018-09-14T04:37:06.941Z,96.46
2018-09-14T04:38:07.011Z,96.36
2018-09-14T04:39:59.852Z,96.65
2018-09-14T04:40:59.869Z,96.65
2018-09-14T04:42:52.800Z,96.56
2018-09-14T04:43:52.812Z,96.17
2018-09-14T04:45:45.716Z,95.79
2018-09-14T04:46:45.735Z,95.70
2018-09-14T04:48:38.641Z,95.51
2018-09-14T04:49:38.653Z,95.51
2018-09-14T04:51:31.770Z,95.70
2018-09-14T04:52:31.583Z,95.70
2018-09-14T04:54:24.487Z,95.51
2018-09-14T04:55:24.491Z,95.51
2018-09-14T04:57:17.484Z,95.89
2018-09-14T04:58:17.417Z,96.17
2018-09-14T05:00:10.317Z,96.08
2018-09-14T05:01:10.337Z,95.89
2018-09-14T05:03:03.279Z,96.27
2018-09-14T05:04:03.255Z,95.79
2018-09-14T05:05:56.196Z,95.70
2018-09-14T05:06:56.183Z,95.51
2018-09-14T05:08:49.100Z,95.46
2018-09-14T05:09:49.103Z,95.65
2018-09-14T05:11:42.008Z,95.27
2018-09-14T05:12:42.022Z,95.27
2018-09-14T05:14:34.938Z,94.41
2018-09-14T05:15:34.944Z,94.32
2018-09-14T05:17:27.853Z,94.60
2018-09-14T05:18:27.861Z,94.51
2018-09-14T05:20:20.771Z,94.41
2018-09-14T05:21:20.778Z,94.12
2018-09-14T05:23:13.695Z,93.84
2018-09-14T05:24:13.748Z,93.93
2018-09-14T05:26:06.603Z,93.55
2018-09-14T05:27:06.620Z,92.98
2018-09-14T05:28:59.528Z,93.46
2018-09-14T05:29:59.538Z,93.36
2018-09-14T05:31:52.439Z,93.41
2018-09-14T05:32:52.455Z,93.88
2018-09-14T05:34:45.366Z,93.79
2018-09-14T05:35:45.376Z,94.08
2018-09-14T05:37:38.276Z,94.22
2018-09-14T05:38:38.294Z,94.70
2018-09-14T05:40:31.199Z,94.60
2018-09-14T05:41:31.210Z,93.65
2018-09-14T05:43:24.110Z,94.03
2018-09-14T05:44:24.128Z,93.74
2018-09-14T05:46:17.040Z,94.12
2018-09-14T05:47:17.050Z,93.74
2018-09-14T05:49:09.962Z,93.27
2018-09-14T05:50:09.970Z,93.65
2018-09-14T05:52:02.874Z,93.17
2018-09-14T05:53:02.895Z,93.74
2018-09-14T05:54:55.801Z,93.84
2018-09-14T05:55:55.812Z,94.12
2018-09-14T05:57:48.717Z,94.51
2018-09-14T05:58:48.729Z,94.89
2018-09-14T06:00:41.640Z,94.60
2018-09-14T06:01:41.653Z,94.79
2018-09-14T06:03:34.558Z,94.60
2018-09-14T06:04:34.570Z,94.70
2018-09-14T06:06:27.539Z,94.65
2018-09-14T06:07:27.493Z,94.65
2018-09-14T06:09:20.415Z,93.88
2018-09-14T06:10:20.415Z,93.41
2018-09-14T06:12:13.314Z,93.31
2018-09-14T06:13:13.333Z,93.98
2018-09-14T06:15:06.249Z,93.41
2018-09-14T06:16:06.257Z,93.51
2018-09-14T06:17:59.174Z,93.51
2018-09-14T06:18:59.214Z,93.22
2018-09-14T06:20:52.093Z,93.51
2018-09-14T06:21:52.101Z,92.93
2018-09-14T06:23:45.013Z,92.07
2018-09-14T06:24:45.026Z,92.36
2018-09-14T06:26:38.014Z,92.93
2018-09-14T06:27:37.990Z,92.83
2018-09-14T06:29:30.891Z,93.12
2018-09-14T06:30:30.943Z,92.36
2018-09-14T06:32:23.824Z,91.98
2018-09-14T06:33:23.832Z,91.60
2018-09-14T06:35:16.748Z,91.98
2018-09-14T06:36:16.774Z,91.69
2018-09-14T06:38:09.712Z,92.17
2018-09-14T06:39:09.711Z,91.83
2018-09-14T06:41:02.585Z,91.83
2018-09-14T06:42:02.591Z,92.12
2018-09-14T06:43:55.495Z,91.93
2018-09-14T06:44:55.569Z,91.93
2018-09-14T06:46:48.428Z,92.02
2018-09-14T06:47:48.455Z,92.02
2018-09-14T06:49:41.343Z,92.02
2018-09-14T06:50:41.362Z,91.93
2018-09-14T06:52:34.275Z,91.16
2018-09-14T06:53:34.290Z,91.64
2018-09-14T06:55:27.204Z,91.74
2018-09-14T06:56:27.226Z,91.64
2018-09-14T06:58:20.135Z,91.45
2018-09-14T06:59:20.148Z,91.26
2018-09-14T07:01:13.061Z,91.64
2018-09-14T07:02:13.069Z,91.55
2018-09-14T07:04:05.976Z,92.21
2018-09-14T07:05:05.995Z,91.74
2018-09-14T07:06:58.905Z,91.83
2018-09-14T07:07:58.913Z,92.31
2018-09-14T07:09:51.817Z,91.74
2018-09-14T07:10:51.836Z,92.21
2018-09-14T07:12:44.747Z,92.26
2018-09-14T07:13:44.756Z,92.55
2018-09-14T07:15:37.668Z,91.78
2018-09-14T07:16:37.686Z,92.26
2018-09-14T07:18:30.595Z,91.97
2018-09-14T07:19:30.608Z,91.88
2018-09-14T07:21:23.511Z,91.88
2018-09-14T07:22:23.549Z,91.97
2018-09-14T07:24:16.543Z,90.64
2018-09-14T07:25:16.460Z,90.45
2018-09-14T07:27:09.407Z,90.69
2018-09-14T07:28:09.394Z,91.45
2018-09-14T07:30:02.323Z,91.83
2018-09-14T07:31:02.306Z,92.45
2018-09-14T07:32:55.225Z,92.26
2018-09-14T07:33:55.228Z,91.88
2018-09-14T07:35:48.136Z,92.26
2018-09-14T07:36:48.158Z,92.07
2018-09-14T07:38:41.078Z,91.69
2018-09-14T07:39:41.081Z,92.55
2018-09-14T07:41:33.991Z,92.36
2018-09-14T07:42:34.020Z,92.55
2018-09-14T07:44:26.922Z,92.45
2018-09-14T07:45:26.935Z,92.64
2018-09-14T07:47:19.849Z,92.26
2018-09-14T07:48:19.880Z,92.16
2018-09-14T07:50:12.765Z,91.93
2018-09-14T07:51:12.788Z,91.83
2018-09-14T07:53:05.698Z,92.50
2018-09-14T07:54:05.712Z,92.21
2018-09-14T07:55:58.620Z,91.88
2018-09-14T07:56:58.642Z,91.97
2018-09-14T07:58:51.553Z,91.88
2018-09-14T07:59:51.566Z,91.11
2018-09-14T08:01:44.472Z,90.48
2018-09-14T08:02:44.492Z,90.58
2018-09-14T08:04:37.406Z,89.05
2018-09-14T08:05:37.443Z,89.24
2018-09-14T08:07:30.330Z,89.53
2018-09-14T08:08:30.342Z,89.15
2018-09-14T08:10:23.258Z,88.62
2018-09-14T08:11:23.270Z,88.33
2018-09-14T08:13:16.416Z,88.23
2018-09-14T08:14:17.234Z,87.85
2018-09-14T08:16:09.305Z,86.74
2018-09-14T08:17:09.335Z,86.17
2018-09-14T08:19:02.242Z,85.41
2018-09-14T08:20:02.320Z,85.41
2018-09-14T08:21:55.234Z,85.02
2018-09-14T08:22:55.202Z,84.50
2018-09-14T08:24:48.115Z,84.50
2018-09-14T08:25:48.123Z,85.36
2018-09-14T08:27:41.032Z,85.36
2018-09-14T08:28:41.055Z,85.75
2018-09-14T08:30:33.969Z,86.57
2018-09-14T08:31:33.982Z,86.18
2018-09-14T08:33:26.891Z,87.52
2018-09-14T08:34:26.912Z,87.90
2018-09-14T08:36:19.859Z,89.05
2018-09-14T08:37:19.845Z,88.48
2018-09-14T08:39:12.772Z,87.66
2018-09-14T08:40:12.773Z,87.85
2018-09-14T08:42:05.677Z,87.47
2018-09-14T08:43:05.697Z,87.27
2018-09-14T08:44:58.610Z,86.65
2018-09-14T08:45:58.628Z,86.46
2018-09-14T08:47:51.570Z,85.69
2018-09-14T08:48:51.559Z,86.27
2018-09-14T08:50:44.473Z,85.79
2018-09-14T08:51:44.485Z,85.35
2018-09-14T08:53:37.411Z,84.78
2018-09-14T08:54:37.417Z,85.35
2018-09-14T08:56:30.350Z,84.88
2018-09-14T08:57:30.356Z,84.68
2018-09-14T08:59:23.266Z,83.92
2018-09-14T09:00:23.279Z,84.20
2018-09-14T09:02:16.193Z,84.25
2018-09-14T09:03:16.210Z,83.48
2018-09-14T09:05:09.137Z,82.23
2018-09-14T09:06:09.148Z,82.52
2018-09-14T09:08:02.061Z,82.85
2018-09-14T09:09:02.083Z,82.56
2018-09-14T09:10:55.002Z,80.45
2018-09-14T09:11:55.012Z,80.64
2018-09-14T09:13:47.925Z,80.03
2018-09-14T09:14:47.947Z,80.79
2018-09-14T09:16:40.871Z,81.41
2018-09-14T09:17:40.895Z,81.12
2018-09-14T09:19:33.792Z,81.02
2018-09-14T09:20:33.814Z,81.02
2018-09-14T09:22:26.734Z,80.64
2018-09-14T09:23:26.808Z,80.16
2018-09-14T09:25:19.664Z,80.01
2018-09-14T09:26:19.757Z,80.30
2018-09-14T09:28:12.590Z,79.24
2018-09-14T09:29:12.616Z,79.14
2018-09-14T09:31:05.530Z,79.28
2018-09-14T09:32:05.551Z,78.42
2018-09-14T09:33:58.474Z,78.23
2018-09-14T09:34:58.503Z,78.13
2018-09-14T09:36:51.428Z,76.92
2018-09-14T09:37:51.444Z,76.54
2018-09-14T09:39:44.360Z,76.15
2018-09-14T09:40:44.380Z,75.38
2018-09-14T09:42:37.308Z,75.63
2018-09-14T09:43:37.527Z,76.06
2018-09-14T09:45:30.237Z,76.34
2018-09-14T09:46:30.260Z,76.73
2018-09-14T09:48:23.183Z,75.20
2018-09-14T09:49:23.199Z,74.90
2018-09-14T09:51:16.149Z,75.23
2018-09-14T09:52:16.136Z,75.71
2018-09-14T09:54:09.065Z,75.32
2018-09-14T09:55:09.127Z,74.46
2018-09-14T09:57:02.019Z,73.11
2018-09-14T09:58:02.031Z,73.50
2018-09-14T09:59:54.975Z,74.23
2018-09-14T10:00:54.980Z,74.08
2018-09-14T10:02:47.889Z,74.08
2018-09-14T10:03:48.017Z,73.88
2018-09-14T10:05:41.328Z,73.63
2018-09-14T10:06:41.355Z,74.08
2018-09-14T10:08:34.276Z,74.02
2018-09-14T10:09:34.291Z,74.50
2018-09-14T10:11:27.214Z,72.58
2018-09-14T10:12:27.228Z,73.06
2018-09-14T10:14:20.170Z,72.67
2018-09-14T10:15:20.199Z,73.06
2018-09-14T10:17:13.154Z,74.02
2018-09-14T10:18:13.167Z,73.73
2018-09-14T10:20:06.079Z,73.73
2018-09-14T10:21:06.172Z,73.83
2018-09-14T10:22:59.027Z,72.00
2018-09-14T10:23:59.038Z,72.09
2018-09-14T10:25:51.942Z,72.29
2018-09-14T10:26:52.011Z,72.06
2018-09-14T10:28:44.946Z,72.83
2018-09-14T10:29:44.908Z,73.11
2018-09-14T10:31:37.816Z,73.37
2018-09-14T10:32:37.839Z,74.33
2018-09-14T10:34:30.761Z,75.38
2018-09-14T10:35:30.772Z,75.81
2018-09-14T10:37:23.686Z,75.29
2018-09-14T10:38:23.728Z,74.55
2018-09-14T10:40:16.645Z,73.69
2018-09-14T10:41:16.641Z,73.11
2018-09-14T10:43:09.564Z,72.54
2018-09-14T10:44:09.577Z,73.21
2018-09-14T10:46:02.491Z,72.73
2018-09-14T10:47:02.521Z,73.11
2018-09-14T10:48:55.524Z,72.38
2018-09-14T10:49:55.478Z,71.67
2018-09-14T10:51:48.355Z,72.00
2018-09-14T10:52:48.378Z,72.00
2018-09-14T10:54:41.332Z,70.33
2018-09-14T10:55:41.325Z,70.37
2018-09-14T10:57:34.236Z,69.60
2018-09-14T10:58:34.254Z,70.07
2018-09-14T11:00:28.167Z,69.40
2018-09-14T11:01:28.185Z,68.44
2018-09-14T11:03:21.116Z,67.96
2018-09-14T11:04:21.177Z,67.68
2018-09-14T11:06:14.029Z,67.86
2018-09-14T11:07:14.049Z,67.48
2018-09-14T11:09:06.973Z,66.23
2018-09-14T11:10:07.044Z,66.71
2018-09-14T11:11:59.897Z,67.10
2018-09-14T11:12:59.936Z,67.22
2018-09-14T11:14:52.840Z,67.42
2018-09-14T11:15:52.857Z,66.27
2018-09-14T11:17:45.767Z,63.86
2018-09-14T11:18:45.920Z,64.37
2018-09-14T11:20:38.773Z,64.56
2018-09-14T11:21:38.725Z,64.08
2018-09-14T11:23:31.635Z,61.39
2018-09-14T11:24:31.703Z,58.98
2018-09-14T11:26:24.585Z,59.47
2018-09-14T11:27:24.603Z,60.33
2018-09-14T11:29:17.522Z,60.33
2018-09-14T11:30:17.535Z,59.47
2018-09-14T11:32:10.458Z,58.37
2018-09-14T11:33:10.468Z,58.50
2018-09-14T11:35:03.389Z,57.45
2018-09-14T11:36:03.402Z,57.35
2018-09-14T11:37:56.418Z,57.51
2018-09-14T11:38:56.336Z,57.54
2018-09-14T11:40:49.258Z,57.73
2018-09-14T11:41:49.273Z,57.92
2018-09-14T11:43:42.186Z,55.62
2018-09-14T11:44:42.209Z,56.20
2018-09-14T11:46:35.137Z,56.99
2018-09-14T11:47:35.144Z,54.65
2018-09-14T11:49:28.053Z,54.36
2018-09-14T11:50:28.075Z,54.75
2018-09-14T11:52:21.002Z,55.90
2018-09-14T11:53:21.014Z,55.23
2018-09-14T11:55:13.955Z,54.65
2018-09-14T11:56:13.947Z,54.75
2018-09-14T11:58:06.928Z,54.78
2018-09-14T11:59:06.924Z,54.94
2018-09-14T12:00:59.804Z,55.13
2018-09-14T12:01:59.821Z,55.13
2018-09-14T12:03:52.735Z,54.94
2018-09-14T12:04:52.753Z,56.10
2018-09-14T12:06:45.676Z,55.93
2018-09-14T12:07:45.691Z,54.78
2018-09-14T12:09:38.600Z,54.10
2018-09-14T12:10:38.622Z,53.05
2018-09-14T12:12:31.547Z,53.05
2018-09-14T12:13:31.616Z,53.07
2018-09-14T12:15:24.479Z,53.17
2018-09-14T12:16:24.493Z,53.27
2018-09-14T12:19:49.750Z,54.13
2018-09-14T12:20:49.771Z,52.97
2018-09-14T12:22:42.713Z,53.36
2018-09-14T12:23:42.709Z,53.55
2018-09-14T12:25:35.635Z,54.32
2018-09-14T12:26:35.647Z,53.27
2018-09-14T12:28:28.585Z,52.87
2018-09-14T12:29:28.582Z,53.09
2018-09-14T12:31:21.509Z,53.29
2018-09-14T12:32:21.519Z,53.48
2018-09-14T12:34:14.432Z,53.19
2018-09-14T12:35:14.454Z,52.61
2018-09-14T12:37:07.383Z,52.42
2018-09-14T12:38:07.396Z,52.13
2018-09-14T12:40:00.312Z,53.41
2018-09-14T12:41:00.335Z,53.51
2018-09-14T12:42:53.263Z,52.55
2018-09-14T12:43:53.269Z,52.25
2018-09-14T12:45:46.191Z,49.75
2018-09-14T12:46:46.230Z,48.97
2018-09-14T12:48:39.152Z,49.55
2018-09-14T12:49:39.156Z,49.27
2018-09-14T12:51:32.078Z,49.84
2018-09-14T12:52:32.093Z,49.82
2018-09-14T12:54:25.009Z,50.66
2018-09-14T12:55:25.031Z,51.92
2018-09-14T12:57:17.954Z,53.00
2018-09-14T12:58:17.969Z,52.61
2018-09-14T13:00:10.884Z,53.29
2018-09-14T13:01:10.908Z,53.96
2018-09-14T13:03:03.832Z,53.48
2018-09-14T13:04:03.849Z,51.07
2018-09-14T13:05:56.764Z,51.94
2018-09-14T13:06:56.788Z,51.94
2018-09-14T13:08:49.907Z,50.98
2018-09-14T13:09:49.924Z,51.26
2018-09-14T13:11:43.043Z,50.69
2018-09-14T13:12:43.058Z,50.42
2018-09-14T13:14:36.008Z,52.25
2018-09-14T13:15:36.014Z,51.77
2018-09-14T13:17:28.930Z,51.29
2018-09-14T13:18:28.960Z,50.93
2018-09-14T13:20:21.858Z,50.93
2018-09-14T13:21:21.887Z,51.12
2018-09-14T13:23:14.807Z,50.35
2018-09-14T13:24:14.849Z,49.00
2018-09-14T13:26:07.740Z,49.19
2018-09-14T13:27:07.761Z,49.19
2018-09-14T13:29:00.709Z,48.23
2018-09-14T13:30:00.702Z,48.81
2018-09-14T13:31:53.645Z,47.75
2018-09-14T13:32:53.652Z,47.75
2018-09-14T13:34:46.582Z,49.00
2018-09-14T13:35:46.590Z,46.59
2018-09-14T13:37:39.532Z,46.69
2018-09-14T13:38:39.577Z,45.24
2018-09-14T13:40:32.456Z,46.78
2018-09-14T13:41:32.495Z,45.24
2018-09-14T13:43:25.411Z,45.26
2018-09-14T13:44:25.428Z,46.13
2018-09-14T13:46:18.454Z,45.09
2018-09-14T13:47:18.359Z,44.70
2018-09-14T13:49:11.282Z,44.70
2018-09-14T13:50:11.297Z,45.09
2018-09-14T13:52:04.211Z,44.34
2018-09-14T13:53:04.233Z,43.85
2018-09-14T13:54:57.163Z,43.08
2018-09-14T13:55:57.178Z,43.18
2018-09-14T13:57:50.130Z,42.89
2018-09-14T13:58:50.138Z,42.79
2018-09-14T14:00:43.070Z,42.91
2018-09-14T14:01:43.153Z,42.33
2018-09-14T14:03:36.004Z,42.04
2018-09-14T14:04:36.028Z,42.62
2018-09-14T14:06:28.954Z,42.14
2018-09-14T14:07:28.971Z,42.91
2018-09-14T14:09:21.898Z,42.12
2018-09-14T14:10:21.995Z,42.02
2018-09-14T14:12:14.979Z,42.99
2018-09-14T14:13:15.003Z,43.08
2018-09-14T14:15:07.928Z,43.54
2018-09-14T14:16:07.943Z,43.37
2018-09-14T14:18:00.865Z,42.58
2018-09-14T14:19:00.888Z,42.48
2018-09-14T14:20:53.818Z,43.54
2018-09-14T14:21:53.849Z,42.97
2018-09-14T14:23:46.754Z,42.87
2018-09-14T14:24:46.791Z,43.57
2018-09-14T14:26:39.723Z,42.89
2018-09-14T14:27:39.720Z,43.18
2018-09-14T14:29:32.673Z,42.89
2018-09-14T14:30:32.674Z,42.89
2018-09-14T14:32:25.579Z,42.50
2018-09-14T14:33:25.608Z,42.41
2018-09-14T14:35:18.533Z,42.31
2018-09-14T14:36:18.549Z,42.89
2018-09-14T14:38:11.478Z,42.70
2018-09-14T14:39:11.505Z,42.70
2018-09-14T14:41:04.446Z,42.68
2018-09-14T14:42:04.464Z,43.08
2018-09-14T14:43:57.392Z,42.68
2018-09-14T14:44:57.406Z,42.77
2018-09-14T14:46:50.337Z,43.26
2018-09-14T14:47:50.347Z,43.54
2018-09-14T14:49:43.314Z,44.32
2018-09-14T14:50:43.299Z,43.28
2018-09-14T14:52:36.233Z,43.57
2018-09-14T14:53:36.254Z,42.89
2018-09-14T14:55:29.186Z,42.41
2018-09-14T14:56:29.214Z,42.70
2018-09-14T14:58:22.122Z,42.41
2018-09-14T14:59:22.254Z,42.50
2018-09-14T15:01:15.066Z,42.21
2018-09-14T15:02:15.089Z,42.19
2018-09-14T15:04:08.055Z,42.19
2018-09-14T15:05:08.046Z,42.58
2018-09-14T15:07:00.974Z,42.77
2018-09-14T15:08:00.987Z,42.97
2018-09-14T15:09:53.913Z,43.08
2018-09-14T15:10:53.939Z,42.89
2018-09-14T15:12:47.854Z,42.50
2018-09-14T15:13:47.874Z,42.41
2018-09-14T15:15:40.811Z,42.31
2018-09-14T15:16:40.813Z,42.21
2018-09-14T15:18:33.728Z,41.35
2018-09-14T15:19:33.751Z,40.28
2018-09-14T15:21:26.720Z,39.80
2018-09-14T15:22:26.705Z,40.36
2018-09-14T15:24:19.632Z,40.84
2018-09-14T15:25:19.667Z,41.71
2018-09-14T15:27:12.594Z,42.00
2018-09-14T15:28:12.605Z,42.46
2018-09-14T15:30:05.522Z,42.08
2018-09-14T15:31:05.546Z,42.46
2018-09-14T15:32:59.646Z,43.04
2018-09-14T15:33:59.663Z,42.93
2018-09-14T15:35:52.578Z,43.41
2018-09-14T15:36:52.603Z,43.50
2018-09-14T15:38:45.526Z,43.50
2018-09-14T15:39:45.557Z,43.60
2018-09-14T15:41:38.468Z,43.89
2018-09-14T15:42:38.481Z,44.27
2018-09-14T15:44:31.416Z,44.66
2018-09-14T15:45:31.440Z,44.76
2018-09-14T15:47:24.366Z,44.46
2018-09-14T15:48:24.380Z,44.66
2018-09-14T15:50:17.302Z,44.37
2018-09-14T15:51:17.328Z,44.46
2018-09-14T15:53:10.257Z,43.60
2018-09-14T15:54:10.269Z,43.12
2018-09-14T15:56:03.185Z,42.93
2018-09-14T15:57:03.209Z,43.31
2018-09-14T15:58:56.135Z,43.33
2018-09-14T15:59:56.146Z,43.24
2018-09-14T16:01:49.077Z,43.04
2018-09-14T16:02:49.089Z,43.52
2018-09-14T16:04:42.006Z,42.46
2018-09-14T16:05:42.031Z,41.88
2018-09-14T16:07:34.953Z,42.25
2018-09-14T16:08:34.967Z,42.25
2018-09-14T16:10:27.890Z,42.83
2018-09-14T16:11:27.908Z,42.73
2018-09-14T16:13:20.878Z,42.73
2018-09-14T16:14:20.859Z,42.83
2018-09-14T16:16:13.779Z,42.35
2018-09-14T16:17:13.808Z,42.13
2018-09-14T16:19:06.749Z,42.80
2018-09-14T16:20:06.789Z,42.71
2018-09-14T16:21:59.691Z,42.90
2018-09-14T16:22:59.694Z,43.38
2018-09-14T16:24:52.734Z,43.87
2018-09-14T16:25:52.659Z,44.15
2018-09-14T16:27:45.578Z,44.13
2018-09-14T16:28:45.590Z,44.35
2018-09-14T16:30:38.506Z,44.62
2018-09-14T16:31:38.610Z,44.42
2018-09-14T16:33:31.455Z,44.90
2018-09-14T16:34:31.474Z,44.81
2018-09-14T16:36:24.385Z,44.71
2018-09-14T16:37:24.410Z,44.71
2018-09-14T16:39:17.351Z,45.77
2018-09-14T16:40:17.424Z,45.87
2018-09-14T16:42:10.286Z,45.39
2018-09-14T16:43:10.331Z,45.87
2018-09-14T16:45:03.231Z,45.56
2018-09-14T16:46:03.278Z,45.84
2018-09-14T16:47:56.189Z,45.75
2018-09-14T16:48:56.200Z,45.75
2018-09-14T16:50:49.121Z,45.84
2018-09-14T16:51:49.181Z,45.75
2018-09-14T16:53:42.058Z,46.14
2018-09-14T16:54:42.148Z,46.71
2018-09-14T16:56:34.989Z,46.71
2018-09-14T16:57:35.014Z,46.52
2018-09-14T16:59:28.245Z,46.62
2018-09-14T17:00:28.181Z,46.71
2018-09-14T17:02:21.291Z,47.00
2018-09-14T17:03:21.438Z,47.29
2018-09-14T17:05:14.261Z,47.67
2018-09-14T17:06:14.369Z,47.67
2018-09-14T17:08:07.210Z,47.49
2018-09-14T17:09:07.224Z,47.49
2018-09-14T17:11:00.169Z,48.52
2018-09-14T17:12:00.152Z,48.23
2018-09-14T17:13:53.075Z,48.23
2018-09-14T17:14:53.131Z,48.52
2018-09-14T17:16:46.010Z,48.52
2018-09-14T17:17:46.086Z,48.81
2018-09-14T17:19:38.957Z,48.71
2018-09-14T17:20:38.972Z,48.81
2018-09-14T17:22:33.235Z,48.90
2018-09-14T17:23:31.996Z,49.19
2018-09-14T17:25:25.834Z,49.38
2018-09-14T17:26:25.868Z,49.46
2018-09-14T17:28:18.758Z,49.36
2018-09-14T17:29:18.827Z,49.55
2018-09-14T17:31:11.709Z,49.94
2018-09-14T17:32:11.782Z,49.46
2018-09-14T17:34:05.628Z,50.04
2018-09-14T17:35:05.651Z,49.94
2018-09-14T17:36:58.599Z,50.61
2018-09-14T17:37:58.608Z,50.87
2018-09-14T17:39:51.512Z,50.87
2018-09-14T17:40:51.562Z,51.07
2018-09-14T17:42:44.434Z,51.26
2018-09-14T17:43:44.556Z,51.93
2018-09-14T17:45:37.379Z,51.64
2018-09-14T17:46:37.391Z,51.64
2018-09-14T17:48:30.308Z,51.81
